createdAt,value
2017-04-08T00:00:08.159Z,101646
2017-04-08T00:01:08.437Z,101641
2017-04-08T00:02:09.379Z,101647
2017-04-08T00:03:10.418Z,101647
2017-04-08T00:04:11.416Z,101643
2017-04-08T00:05:11.660Z,101635
2017-04-08T00:06:11.865Z,101643
2017-04-08T00:07:12.782Z,101646
2017-04-08T00:08:13.421Z,101642
2017-04-08T00:09:13.622Z,101641
2017-04-08T00:10:13.763Z,101641
2017-04-08T00:11:14.258Z,101642
2017-04-08T00:12:14.506Z,101644
2017-04-08T00:13:15.038Z,101647
2017-04-08T00:14:15.152Z,101647
2017-04-08T00:15:15.217Z,101634
2017-04-08T00:16:15.362Z,101643
2017-04-08T00:17:15.589Z,101646
2017-04-08T00:18:16.661Z,101652
2017-04-08T00:19:16.899Z,101645
2017-04-08T00:20:16.973Z,101637
2017-04-08T00:21:17.221Z,101642
2017-04-08T00:22:17.409Z,101648
2017-04-08T00:23:17.834Z,101630
2017-04-08T00:24:17.984Z,101645
2017-04-08T00:25:18.043Z,101637
2017-04-08T00:26:18.219Z,101629
2017-04-08T00:27:19.129Z,101630
2017-04-08T00:28:19.570Z,101631
2017-04-08T00:29:19.710Z,101633
2017-04-08T00:30:20.540Z,101634
2017-04-08T00:31:20.805Z,101637
2017-04-08T00:32:21.018Z,101635
2017-04-08T00:33:21.442Z,101644
2017-04-08T00:34:22.270Z,101636
2017-04-08T00:35:22.382Z,101633
2017-04-08T00:36:22.544Z,101637
2017-04-08T00:37:22.783Z,101626
2017-04-08T00:38:23.122Z,101634
2017-04-08T00:39:23.397Z,101637
2017-04-08T00:40:23.453Z,101631
2017-04-08T00:41:23.490Z,101633
2017-04-08T00:42:23.577Z,101634
2017-04-08T00:43:24.694Z,101628
2017-04-08T00:44:24.828Z,101628
2017-04-08T00:45:24.889Z,101626
2017-04-08T00:46:25.743Z,101620
2017-04-08T00:47:25.845Z,101632
2017-04-08T00:48:26.358Z,101628
2017-04-08T00:49:26.527Z,101633
2017-04-08T00:50:26.750Z,101634
2017-04-08T00:51:26.885Z,101642
2017-04-08T00:52:26.932Z,101631
2017-04-08T00:53:27.407Z,101638
2017-04-08T00:54:27.493Z,101635
2017-04-08T00:55:27.555Z,101631
2017-04-08T00:56:27.662Z,101622
2017-04-08T00:57:27.903Z,101629
2017-04-08T00:58:28.459Z,101633
2017-04-08T00:59:28.511Z,101630
2017-04-08T01:00:34.793Z,101628
2017-04-08T01:01:34.900Z,101630
2017-04-08T01:02:35.210Z,101629
2017-04-08T01:03:35.432Z,101632
2017-04-08T01:04:35.512Z,101624
2017-04-08T01:05:35.872Z,101621
2017-04-08T01:06:35.910Z,101627
2017-04-08T01:07:35.958Z,101623
2017-04-08T01:08:36.355Z,101623
2017-04-08T01:09:36.381Z,101624
2017-04-08T01:10:36.427Z,101626
2017-04-08T01:11:36.473Z,101617
2017-04-08T01:12:36.556Z,101619
2017-04-08T01:13:36.949Z,101619
2017-04-08T01:14:37.848Z,101622
2017-04-08T01:15:37.899Z,101609
2017-04-08T01:16:37.889Z,101618
2017-04-08T01:17:38.693Z,101621
2017-04-08T01:18:39.046Z,101623
2017-04-08T01:19:39.200Z,101617
2017-04-08T01:20:39.236Z,101618
2017-04-08T01:21:39.274Z,101622
2017-04-08T01:22:39.307Z,101615
2017-04-08T01:23:39.616Z,101616
2017-04-08T01:24:39.603Z,101609
2017-04-08T01:25:39.707Z,101614
2017-04-08T01:26:39.737Z,101613
2017-04-08T01:27:39.785Z,101618
2017-04-08T01:28:40.211Z,101613
2017-04-08T01:29:40.979Z,101613
2017-04-08T01:30:45.260Z,101621
2017-04-08T01:31:45.335Z,101606
2017-04-08T01:32:45.400Z,101614
2017-04-08T01:33:45.661Z,101607
2017-04-08T01:34:45.793Z,101617
2017-04-08T01:35:45.814Z,101614
2017-04-08T01:36:45.917Z,101614
2017-04-08T01:37:45.941Z,101618
2017-04-08T01:38:47.018Z,101617
2017-04-08T01:39:47.620Z,101608
2017-04-08T01:40:47.701Z,101612
2017-04-08T01:41:47.731Z,101605
2017-04-08T01:42:47.758Z,101607
2017-04-08T01:43:48.091Z,101605
2017-04-08T01:44:48.930Z,101602
2017-04-08T01:45:49.687Z,101603
2017-04-08T01:46:49.851Z,101605
2017-04-08T01:47:51.259Z,101604
2017-04-08T01:48:52.124Z,101616
2017-04-08T01:49:52.887Z,101604
2017-04-08T01:50:52.954Z,101605
2017-04-08T01:51:53.743Z,101613
2017-04-08T01:52:53.794Z,101613
2017-04-08T01:53:54.489Z,101609
2017-04-08T01:54:54.546Z,101615
2017-04-08T01:55:54.568Z,101623
2017-04-08T01:56:54.582Z,101615
2017-04-08T01:57:54.625Z,101619
2017-04-08T01:58:55.764Z,101618
2017-04-08T01:59:55.803Z,101621
2017-04-08T02:00:55.846Z,101620
2017-04-08T02:01:55.886Z,101618
2017-04-08T02:02:56.101Z,101614
2017-04-08T02:03:57.326Z,101612
2017-04-08T02:04:57.389Z,101615
2017-04-08T02:05:57.507Z,101621
2017-04-08T02:06:57.526Z,101623
2017-04-08T02:07:57.625Z,101617
2017-04-08T02:08:58.191Z,101619
2017-04-08T02:09:59.006Z,101617
2017-04-08T02:10:59.831Z,101620
2017-04-08T02:11:59.970Z,101609
2017-04-08T02:13:00.770Z,101618
2017-04-08T02:14:01.546Z,101618
2017-04-08T02:15:01.642Z,101617
2017-04-08T02:16:01.656Z,101615
2017-04-08T02:17:01.728Z,101609
2017-04-08T02:18:01.739Z,101606
2017-04-08T02:19:02.146Z,101615
2017-04-08T02:20:02.944Z,101612
2017-04-08T02:21:03.122Z,101616
2017-04-08T02:22:03.570Z,101603
2017-04-08T02:23:03.676Z,101608
2017-04-08T02:24:04.026Z,101608
2017-04-08T02:25:04.168Z,101615
2017-04-08T02:26:04.219Z,101604
2017-04-08T02:27:04.386Z,101609
2017-04-08T02:28:04.502Z,101614
2017-04-08T02:29:04.895Z,101619
2017-04-08T02:30:05.058Z,101612
2017-04-08T02:31:05.148Z,101612
2017-04-08T02:32:05.271Z,101616
2017-04-08T02:33:05.335Z,101616
2017-04-08T02:34:05.739Z,101605
2017-04-08T02:35:05.794Z,101618
2017-04-08T02:36:05.991Z,101606
2017-04-08T02:37:06.048Z,101615
2017-04-08T02:38:06.861Z,101615
2017-04-08T02:39:07.787Z,101609
2017-04-08T02:40:08.630Z,101613
2017-04-08T02:41:08.722Z,101604
2017-04-08T02:42:09.465Z,101608
2017-04-08T02:43:10.339Z,101604
2017-04-08T02:44:10.806Z,101605
2017-04-08T02:45:11.578Z,101609
2017-04-08T02:46:11.639Z,101605
2017-04-08T02:47:12.444Z,101603
2017-04-08T02:48:13.285Z,101602
2017-04-08T02:49:14.271Z,101595
2017-04-08T02:50:14.284Z,101612
2017-04-08T02:51:14.311Z,101596
2017-04-08T02:52:14.416Z,101604
2017-04-08T02:53:14.449Z,101605
2017-04-08T02:54:15.695Z,101602
2017-04-08T02:55:15.726Z,101613
2017-04-08T02:56:15.752Z,101603
2017-04-08T02:57:15.992Z,101605
2017-04-08T02:58:16.037Z,101604
2017-04-08T02:59:16.629Z,101607
2017-04-08T03:00:16.663Z,101604
2017-04-08T03:01:16.781Z,101603
2017-04-08T03:02:16.777Z,101603
2017-04-08T03:03:16.813Z,101603
2017-04-08T03:04:17.276Z,101612
2017-04-08T03:05:18.112Z,101606
2017-04-08T03:06:18.177Z,101605
2017-04-08T03:07:18.309Z,101605
2017-04-08T03:08:18.405Z,101606
2017-04-08T03:09:18.834Z,101598
2017-04-08T03:10:19.010Z,101595
2017-04-08T03:11:19.033Z,101595
2017-04-08T03:12:19.059Z,101595
2017-04-08T03:13:19.098Z,101603
2017-04-08T03:14:19.483Z,101606
2017-04-08T03:15:20.407Z,101613
2017-04-08T03:16:20.463Z,101603
2017-04-08T03:17:20.637Z,101612
2017-04-08T03:18:21.414Z,101606
2017-04-08T03:19:21.884Z,101614
2017-04-08T03:20:22.742Z,101613
2017-04-08T03:21:22.786Z,101614
2017-04-08T03:22:22.917Z,101620
2017-04-08T03:23:23.078Z,101617
2017-04-08T03:24:24.361Z,101614
2017-04-08T03:25:25.123Z,101621
2017-04-08T03:26:25.134Z,101607
2017-04-08T03:27:25.086Z,101617
2017-04-08T03:28:25.104Z,101622
2017-04-08T03:29:26.258Z,101613
2017-04-08T03:30:26.301Z,101613
2017-04-08T03:31:26.383Z,101615
2017-04-08T03:32:26.464Z,101616
2017-04-08T03:33:27.199Z,101622
2017-04-08T03:34:27.610Z,101616
2017-04-08T03:35:28.435Z,101620
2017-04-08T03:36:29.188Z,101618
2017-04-08T03:37:29.232Z,101620
2017-04-08T03:38:29.229Z,101618
2017-04-08T03:39:29.604Z,101621
2017-04-08T03:40:29.814Z,101619
2017-04-08T03:41:29.850Z,101617
2017-04-08T03:42:29.861Z,101622
2017-04-08T03:43:29.883Z,101621
2017-04-08T03:44:30.197Z,101612
2017-04-08T03:45:30.177Z,101615
2017-04-08T03:46:30.197Z,101621
2017-04-08T03:47:30.233Z,101622
2017-04-08T03:48:30.222Z,101615
2017-04-08T03:49:30.594Z,101612
2017-04-08T03:50:30.644Z,101620
2017-04-08T03:51:30.725Z,101623
2017-04-08T03:52:30.760Z,101622
2017-04-08T03:53:30.820Z,101623
2017-04-08T03:54:31.200Z,101620
2017-04-08T03:55:31.278Z,101620
2017-04-08T03:56:31.290Z,101614
2017-04-08T03:57:31.326Z,101617
2017-04-08T03:58:31.352Z,101625
2017-04-08T03:59:31.755Z,101619
2017-04-08T04:00:31.796Z,101619
2017-04-08T04:01:31.867Z,101622
2017-04-08T04:02:32.662Z,101625
2017-04-08T04:03:32.670Z,101622
2017-04-08T04:04:33.012Z,101618
2017-04-08T04:05:33.835Z,101620
2017-04-08T04:06:34.611Z,101616
2017-04-08T04:07:34.655Z,101615
2017-04-08T04:08:34.779Z,101622
2017-04-08T04:09:35.336Z,101619
2017-04-08T04:10:35.415Z,101624
2017-04-08T04:11:35.413Z,101622
2017-04-08T04:12:35.593Z,101625
2017-04-08T04:13:35.672Z,101621
2017-04-08T04:14:36.039Z,101626
2017-04-08T04:15:36.894Z,101626
2017-04-08T04:16:36.922Z,101626
2017-04-08T04:17:36.970Z,101624
2017-04-08T04:18:37.033Z,101632
2017-04-08T04:19:37.410Z,101627
2017-04-08T04:20:38.177Z,101625
2017-04-08T04:21:38.299Z,101630
2017-04-08T04:22:38.466Z,101623
2017-04-08T04:23:39.219Z,101634
2017-04-08T04:24:39.673Z,101631
2017-04-08T04:25:39.726Z,101630
2017-04-08T04:26:39.789Z,101634
2017-04-08T04:27:39.886Z,101634
2017-04-08T04:28:39.951Z,101638
2017-04-08T04:29:40.423Z,101633
2017-04-08T04:30:40.406Z,101637
2017-04-08T04:31:40.485Z,101636
2017-04-08T04:32:40.538Z,101634
2017-04-08T04:33:40.634Z,101640
2017-04-08T04:34:41.693Z,101647
2017-04-08T04:35:41.723Z,101648
2017-04-08T04:36:42.487Z,101641
2017-04-08T04:37:42.506Z,101636
2017-04-08T04:38:42.677Z,101643
2017-04-08T04:39:44.206Z,101642
2017-04-08T04:40:45.014Z,101644
2017-04-08T04:41:45.178Z,101643
2017-04-08T04:42:45.237Z,101643
2017-04-08T04:43:45.235Z,101646
2017-04-08T04:44:45.673Z,101653
2017-04-08T04:45:45.731Z,101649
2017-04-08T04:46:46.353Z,101651
2017-04-08T04:47:46.401Z,101651
2017-04-08T04:48:47.205Z,101656
2017-04-08T04:49:48.474Z,101654
2017-04-08T04:50:48.606Z,101657
2017-04-08T04:51:48.641Z,101648
2017-04-08T04:52:48.667Z,101651
2017-04-08T04:53:48.730Z,101646
2017-04-08T04:54:49.062Z,101652
2017-04-08T04:55:49.131Z,101658
2017-04-08T04:56:49.171Z,101658
2017-04-08T04:57:49.218Z,101659
2017-04-08T04:58:49.227Z,101654
2017-04-08T04:59:49.574Z,101660
2017-04-08T05:00:49.747Z,101659
2017-04-08T05:01:49.808Z,101650
2017-04-08T05:02:50.091Z,101662
2017-04-08T05:03:51.039Z,101658
2017-04-08T05:04:51.056Z,101660
2017-04-08T05:05:51.152Z,101667
2017-04-08T05:06:51.194Z,101657
2017-04-08T05:07:51.230Z,101657
2017-04-08T05:08:52.064Z,101667
2017-04-08T05:09:53.249Z,101658
2017-04-08T05:10:53.337Z,101662
2017-04-08T05:11:53.342Z,101656
2017-04-08T05:12:53.420Z,101662
2017-04-08T05:13:54.217Z,101668
2017-04-08T05:14:54.755Z,101667
2017-04-08T05:15:54.915Z,101662
2017-04-08T05:16:55.210Z,101660
2017-04-08T05:17:55.264Z,101671
2017-04-08T05:18:55.294Z,101679
2017-04-08T05:19:55.544Z,101677
2017-04-08T05:20:55.570Z,101672
2017-04-08T05:21:55.745Z,101674
2017-04-08T05:22:55.835Z,101682
2017-04-08T05:23:55.975Z,101670
2017-04-08T05:24:56.575Z,101679
2017-04-08T05:25:57.338Z,101675
2017-04-08T05:26:57.379Z,101680
2017-04-08T05:27:57.428Z,101682
2017-04-08T05:28:57.497Z,101680
2017-04-08T05:29:57.925Z,101680
2017-04-08T05:30:57.974Z,101689
2017-04-08T05:31:57.957Z,101682
2017-04-08T05:32:57.980Z,101690
2017-04-08T05:33:57.976Z,101697
2017-04-08T05:34:58.381Z,101690
2017-04-08T05:35:59.163Z,101694
2017-04-08T05:36:59.198Z,101693
2017-04-08T05:37:59.243Z,101686
2017-04-08T05:38:59.322Z,101688
2017-04-08T05:39:59.707Z,101697
2017-04-08T05:40:59.754Z,101687
2017-04-08T05:41:59.765Z,101694
2017-04-08T05:43:00.548Z,101692
2017-04-08T05:44:00.539Z,101690
2017-04-08T05:45:00.998Z,101696
2017-04-08T05:46:01.772Z,101700
2017-04-08T05:47:01.847Z,101694
2017-04-08T05:48:02.063Z,101696
2017-04-08T05:49:02.131Z,101699
2017-04-08T05:50:02.557Z,101697
2017-04-08T05:51:03.787Z,101699
2017-04-08T05:52:03.893Z,101693
2017-04-08T05:53:03.946Z,101701
2017-04-08T05:54:04.001Z,101690
2017-04-08T05:55:04.459Z,101691
2017-04-08T05:56:04.506Z,101693
2017-04-08T05:57:04.542Z,101692
2017-04-08T05:58:04.613Z,101693
2017-04-08T05:59:04.643Z,101692
2017-04-08T06:00:05.039Z,101694
2017-04-08T06:01:05.183Z,101695
2017-04-08T06:02:05.243Z,101700
2017-04-08T06:03:06.170Z,101696
2017-04-08T06:04:06.242Z,101695
2017-04-08T06:05:06.582Z,101691
2017-04-08T06:06:06.641Z,101697
2017-04-08T06:07:07.071Z,101696
2017-04-08T06:08:07.166Z,101694
2017-04-08T06:09:07.270Z,101693
2017-04-08T06:10:07.681Z,101694
2017-04-08T06:11:07.773Z,101698
2017-04-08T06:12:07.836Z,101692
2017-04-08T06:13:08.627Z,101689
2017-04-08T06:14:08.698Z,101696
2017-04-08T06:15:09.177Z,101695
2017-04-08T06:16:09.233Z,101692
2017-04-08T06:17:09.326Z,101695
2017-04-08T06:18:09.434Z,101698
2017-04-08T06:19:10.356Z,101701
2017-04-08T06:20:12.014Z,101701
2017-04-08T06:21:12.033Z,101701
2017-04-08T06:22:12.131Z,101700
2017-04-08T06:23:12.175Z,101702
2017-04-08T06:24:12.197Z,101704
2017-04-08T06:25:13.081Z,101707
2017-04-08T06:26:13.119Z,101702
2017-04-08T06:27:13.154Z,101701
2017-04-08T06:28:14.047Z,101711
2017-04-08T06:29:14.107Z,101705
2017-04-08T06:30:14.723Z,101700
2017-04-08T06:31:14.839Z,101706
2017-04-08T06:32:14.859Z,101709
2017-04-08T06:33:14.990Z,101712
2017-04-08T06:34:15.137Z,101714
2017-04-08T06:35:16.257Z,101718
2017-04-08T06:36:16.387Z,101723
2017-04-08T06:37:17.155Z,101722
2017-04-08T06:38:17.208Z,101725
2017-04-08T06:39:18.048Z,101713
2017-04-08T06:40:19.168Z,101720
2017-04-08T06:41:19.926Z,101728
2017-04-08T06:42:19.928Z,101724
2017-04-08T06:43:19.960Z,101726
2017-04-08T06:44:20.047Z,101724
2017-04-08T06:45:20.426Z,101729
2017-04-08T06:46:20.490Z,101720
2017-04-08T06:47:20.615Z,101724
2017-04-08T06:48:20.725Z,101719
2017-04-08T06:49:20.763Z,101718
2017-04-08T06:50:22.111Z,101725
2017-04-08T06:51:22.871Z,101723
2017-04-08T06:52:22.878Z,101718
2017-04-08T06:53:23.026Z,101722
2017-04-08T06:54:23.826Z,101724
2017-04-08T06:55:24.183Z,101723
2017-04-08T06:56:24.245Z,101725
2017-04-08T06:57:24.325Z,101721
2017-04-08T06:58:24.379Z,101729
2017-04-08T06:59:24.495Z,101724
2017-04-08T07:00:24.943Z,101732
2017-04-08T07:01:24.990Z,101731
2017-04-08T07:02:28.067Z,101732
2017-04-08T07:03:28.160Z,101727
2017-04-08T07:04:29.020Z,101728
2017-04-08T07:05:29.527Z,101729
2017-04-08T07:06:29.588Z,101731
2017-04-08T07:07:29.706Z,101730
2017-04-08T07:08:29.763Z,101729
2017-04-08T07:09:29.983Z,101727
2017-04-08T07:10:31.235Z,101726
2017-04-08T07:11:32.174Z,101725
2017-04-08T07:12:32.969Z,101733
2017-04-08T07:13:33.003Z,101731
2017-04-08T07:14:33.811Z,101732
2017-04-08T07:15:34.258Z,101730
2017-04-08T07:16:34.287Z,101732
2017-04-08T07:17:35.065Z,101735
2017-04-08T07:18:35.839Z,101733
2017-04-08T07:19:35.907Z,101726
2017-04-08T07:20:37.003Z,101729
2017-04-08T07:21:37.116Z,101738
2017-04-08T07:22:37.148Z,101731
2017-04-08T07:23:37.946Z,101731
2017-04-08T07:24:37.997Z,101733
2017-04-08T07:25:38.412Z,101730
2017-04-08T07:26:38.450Z,101740
2017-04-08T07:27:38.475Z,101738
2017-04-08T07:28:38.539Z,101735
2017-04-08T07:29:38.558Z,101740
2017-04-08T07:30:39.256Z,101743
2017-04-08T07:31:39.467Z,101742
2017-04-08T07:32:39.475Z,101743
2017-04-08T07:33:39.543Z,101746
2017-04-08T07:34:39.599Z,101749
2017-04-08T07:35:40.804Z,101742
2017-04-08T07:36:40.839Z,101746
2017-04-08T07:37:40.918Z,101750
2017-04-08T07:38:41.758Z,101742
2017-04-08T07:39:42.834Z,101746
2017-04-08T07:40:43.326Z,101741
2017-04-08T07:41:43.490Z,101751
2017-04-08T07:42:43.575Z,101747
2017-04-08T07:43:43.605Z,101750
2017-04-08T07:44:43.745Z,101755
2017-04-08T07:45:44.883Z,101745
2017-04-08T07:46:45.691Z,101752
2017-04-08T07:47:45.744Z,101755
2017-04-08T07:48:45.917Z,101754
2017-04-08T07:49:46.736Z,101749
2017-04-08T07:50:47.158Z,101750
2017-04-08T07:51:48.031Z,101750
2017-04-08T07:52:48.173Z,101754
2017-04-08T07:53:48.285Z,101753
2017-04-08T07:54:48.326Z,101757
2017-04-08T07:55:49.652Z,101757
2017-04-08T07:56:49.726Z,101754
2017-04-08T07:57:49.913Z,101757
2017-04-08T07:58:50.016Z,101764
2017-04-08T07:59:50.096Z,101770
2017-04-08T08:00:50.519Z,101767
2017-04-08T08:01:50.571Z,101766
2017-04-08T08:02:50.647Z,101772
2017-04-08T08:03:50.644Z,101766
2017-04-08T08:04:50.732Z,101772
2017-04-08T08:05:51.139Z,101771
2017-04-08T08:06:52.011Z,101774
2017-04-08T08:07:52.131Z,101773
2017-04-08T08:08:52.338Z,101770
2017-04-08T08:09:52.627Z,101772
2017-04-08T08:10:53.051Z,101766
2017-04-08T08:11:53.111Z,101771
2017-04-08T08:12:53.294Z,101771
2017-04-08T08:13:53.391Z,101779
2017-04-08T08:14:54.526Z,101776
2017-04-08T08:15:55.120Z,101767
2017-04-08T08:16:55.302Z,101781
2017-04-08T08:17:55.504Z,101771
2017-04-08T08:18:55.619Z,101784
2017-04-08T08:19:56.563Z,101778
2017-04-08T08:20:57.727Z,101781
2017-04-08T08:21:57.847Z,101787
2017-04-08T08:22:57.923Z,101789
2017-04-08T08:23:58.128Z,101786
2017-04-08T08:24:58.905Z,101785
2017-04-08T08:25:59.256Z,101784
2017-04-08T08:27:00.052Z,101784
2017-04-08T08:28:00.098Z,101790
2017-04-08T08:29:01.032Z,101797
2017-04-08T08:30:01.952Z,101792
2017-04-08T08:31:02.388Z,101799
2017-04-08T08:32:02.551Z,101800
2017-04-08T08:33:02.721Z,101792
2017-04-08T08:34:02.822Z,101801
2017-04-08T08:35:03.051Z,101791
2017-04-08T08:36:03.508Z,101793
2017-04-08T08:37:03.685Z,101791
2017-04-08T08:38:03.789Z,101795
2017-04-08T08:39:03.899Z,101796
2017-04-08T08:40:03.998Z,101787
2017-04-08T08:41:04.543Z,101791
2017-04-08T08:42:04.618Z,101789
2017-04-08T08:43:04.898Z,101791
2017-04-08T08:44:05.852Z,101787
2017-04-08T08:45:06.008Z,101784
2017-04-08T08:46:06.559Z,101786
2017-04-08T08:47:07.416Z,101796
2017-04-08T08:48:07.511Z,101791
2017-04-08T08:49:07.555Z,101788
2017-04-08T08:50:07.669Z,101788
2017-04-08T08:51:08.179Z,101788
2017-04-08T08:52:11.393Z,101793
2017-04-08T08:53:11.419Z,101792
2017-04-08T08:54:12.274Z,101788
2017-04-08T08:55:12.362Z,101802
2017-04-08T08:56:13.711Z,101797
2017-04-08T08:57:14.337Z,101797
2017-04-08T08:58:14.430Z,101793
2017-04-08T08:59:16.007Z,101798
2017-04-08T09:00:16.043Z,101797
2017-04-08T09:01:16.408Z,101795
2017-04-08T09:02:16.560Z,101797
2017-04-08T09:03:16.775Z,101790
2017-04-08T09:04:16.730Z,101799
2017-04-08T09:05:16.817Z,101797
2017-04-08T09:06:18.192Z,101799
2017-04-08T09:07:18.363Z,101796
2017-04-08T09:08:18.490Z,101796
2017-04-08T09:09:18.637Z,101799
2017-04-08T09:10:18.684Z,101798
2017-04-08T09:11:19.410Z,101805
2017-04-08T09:12:19.475Z,101800
2017-04-08T09:13:19.581Z,101799
2017-04-08T09:14:20.373Z,101800
2017-04-08T09:15:21.404Z,101796
2017-04-08T09:16:21.794Z,101798
2017-04-08T09:17:21.807Z,101803
2017-04-08T09:18:22.761Z,101792
2017-04-08T09:19:22.817Z,101803
2017-04-08T09:20:22.864Z,101798
2017-04-08T09:21:23.963Z,101803
2017-04-08T09:22:23.979Z,101798
2017-04-08T09:23:24.092Z,101800
2017-04-08T09:24:24.298Z,101802
2017-04-08T09:25:24.366Z,101800
2017-04-08T09:26:24.682Z,101809
2017-04-08T09:27:24.736Z,101803
2017-04-08T09:28:25.540Z,101804
2017-04-08T09:29:25.577Z,101808
2017-04-08T09:30:26.359Z,101813
2017-04-08T09:31:33.181Z,101811
2017-04-08T09:32:33.294Z,101806
2017-04-08T09:33:33.409Z,101801
2017-04-08T09:34:33.438Z,101812
2017-04-08T09:35:33.496Z,101799
2017-04-08T09:36:33.906Z,101807
2017-04-08T09:37:34.730Z,101811
2017-04-08T09:38:34.825Z,101811
2017-04-08T09:39:35.353Z,101808
2017-04-08T09:40:35.439Z,101812
2017-04-08T09:41:35.896Z,101810
2017-04-08T09:42:35.976Z,101807
2017-04-08T09:43:36.226Z,101811
2017-04-08T09:44:36.281Z,101803
2017-04-08T09:45:36.375Z,101815
2017-04-08T09:46:36.847Z,101814
2017-04-08T09:47:37.700Z,101813
2017-04-08T09:48:38.533Z,101819
2017-04-08T09:49:38.642Z,101818
2017-04-08T09:50:38.895Z,101810
2017-04-08T09:51:39.383Z,101819
2017-04-08T09:52:39.544Z,101811
2017-04-08T09:53:40.011Z,101814
2017-04-08T09:54:40.140Z,101811
2017-04-08T09:55:40.296Z,101818
2017-04-08T09:56:40.722Z,101807
2017-04-08T09:57:40.825Z,101810
2017-04-08T09:58:40.917Z,101814
2017-04-08T09:59:41.721Z,101806
2017-04-08T10:00:41.828Z,101811
2017-04-08T10:01:42.393Z,101812
2017-04-08T10:02:42.728Z,101808
2017-04-08T10:03:43.690Z,101813
2017-04-08T10:04:43.769Z,101815
2017-04-08T10:05:43.933Z,101813
2017-04-08T10:06:44.411Z,101813
2017-04-08T10:07:44.514Z,101815
2017-04-08T10:08:44.613Z,101814
2017-04-08T10:09:44.749Z,101813
2017-04-08T10:10:44.901Z,101819
2017-04-08T10:11:45.517Z,101818
2017-04-08T10:12:45.668Z,101815
2017-04-08T10:13:45.797Z,101815
2017-04-08T10:14:45.875Z,101807
2017-04-08T10:15:45.967Z,101809
2017-04-08T10:16:46.378Z,101811
2017-04-08T10:17:46.511Z,101811
2017-04-08T10:18:46.549Z,101816
2017-04-08T10:19:46.659Z,101816
2017-04-08T10:20:46.775Z,101815
2017-04-08T10:21:47.211Z,101816
2017-04-08T10:22:47.983Z,101810
2017-04-08T10:23:48.134Z,101809
2017-04-08T10:24:48.999Z,101815
2017-04-08T10:25:49.092Z,101807
2017-04-08T10:26:50.537Z,101806
2017-04-08T10:27:50.605Z,101812
2017-04-08T10:28:50.795Z,101810
2017-04-08T10:29:50.980Z,101803
2017-04-08T10:30:51.063Z,101800
2017-04-08T10:31:51.906Z,101808
2017-04-08T10:32:51.957Z,101806
2017-04-08T10:33:52.115Z,101803
2017-04-08T10:34:52.351Z,101798
2017-04-08T10:35:52.472Z,101805
2017-04-08T10:36:53.045Z,101796
2017-04-08T10:37:53.352Z,101801
2017-04-08T10:38:53.494Z,101806
2017-04-08T10:39:53.566Z,101808
2017-04-08T10:40:58.793Z,101804
2017-04-08T10:41:59.171Z,101809
2017-04-08T10:42:59.228Z,101806
2017-04-08T10:44:00.049Z,101804
2017-04-08T10:45:00.163Z,101802
2017-04-08T10:46:00.967Z,101793
2017-04-08T10:47:01.647Z,101791
2017-04-08T10:48:01.777Z,101792
2017-04-08T10:49:01.958Z,101795
2017-04-08T10:50:02.119Z,101806
2017-04-08T10:51:02.277Z,101793
2017-04-08T10:52:03.628Z,101791
2017-04-08T10:53:03.871Z,101794
2017-04-08T10:54:03.992Z,101790
2017-04-08T10:55:04.811Z,101786
2017-04-08T10:56:04.949Z,101790
2017-04-08T10:57:05.872Z,101792
2017-04-08T10:58:05.962Z,101796
2017-04-08T10:59:06.913Z,101790
2017-04-08T11:00:06.975Z,101794
2017-04-08T11:01:06.981Z,101795
2017-04-08T11:02:07.643Z,101792
2017-04-08T11:03:07.892Z,101793
2017-04-08T11:04:07.975Z,101797
2017-04-08T11:05:08.049Z,101793
2017-04-08T11:06:08.134Z,101788
2017-04-08T11:07:08.633Z,101794
2017-04-08T11:08:08.699Z,101793
2017-04-08T11:09:09.577Z,101792
2017-04-08T11:10:09.656Z,101788
2017-04-08T11:11:09.719Z,101786
2017-04-08T11:12:10.154Z,101786
2017-04-08T11:13:11.023Z,101791
2017-04-08T11:14:11.136Z,101786
2017-04-08T11:15:11.305Z,101787
2017-04-08T11:16:12.135Z,101792
2017-04-08T11:17:13.386Z,101783
2017-04-08T11:18:13.436Z,101790
2017-04-08T11:19:13.527Z,101788
2017-04-08T11:20:13.791Z,101783
2017-04-08T11:21:14.750Z,101788
2017-04-08T11:22:15.264Z,101787
2017-04-08T11:23:15.326Z,101789
2017-04-08T11:24:15.504Z,101786
2017-04-08T11:25:15.667Z,101786
2017-04-08T11:26:15.726Z,101776
2017-04-08T11:27:16.203Z,101786
2017-04-08T11:28:16.302Z,101777
2017-04-08T11:29:17.102Z,101777
2017-04-08T11:30:17.839Z,101786
2017-04-08T11:31:18.352Z,101779
2017-04-08T11:32:18.799Z,101787
2017-04-08T11:33:19.731Z,101789
2017-04-08T11:34:19.894Z,101788
2017-04-08T11:35:19.912Z,101791
2017-04-08T11:36:20.398Z,101781
2017-04-08T11:37:20.731Z,101786
2017-04-08T11:38:20.792Z,101781
2017-04-08T11:39:20.900Z,101787
2017-04-08T11:40:21.007Z,101780
2017-04-08T11:41:21.046Z,101780
2017-04-08T11:42:21.508Z,101780
2017-04-08T11:43:22.338Z,101777
2017-04-08T11:44:22.848Z,101782
2017-04-08T11:45:23.180Z,101777
2017-04-08T11:46:23.293Z,101770
2017-04-08T11:47:23.794Z,101776
2017-04-08T11:48:23.935Z,101771
2017-04-08T11:49:24.043Z,101780
2017-04-08T11:50:24.123Z,101783
2017-04-08T11:51:24.945Z,101780
2017-04-08T11:52:26.055Z,101781
2017-04-08T11:53:26.272Z,101774
2017-04-08T11:54:26.396Z,101782
2017-04-08T11:55:26.484Z,101775
2017-04-08T11:56:26.539Z,101770
2017-04-08T11:57:27.060Z,101774
2017-04-08T11:58:27.186Z,101772
2017-04-08T11:59:27.400Z,101774
2017-04-08T12:00:27.597Z,101780
2017-04-08T12:01:27.756Z,101781
2017-04-08T12:02:28.123Z,101781
2017-04-08T12:03:28.241Z,101773
2017-04-08T12:04:29.047Z,101776
2017-04-08T12:05:29.156Z,101774
2017-04-08T12:06:29.258Z,101776
2017-04-08T12:07:30.038Z,101764
2017-04-08T12:08:30.095Z,101775
2017-04-08T12:09:30.159Z,101773
2017-04-08T12:10:30.291Z,101777
2017-04-08T12:11:31.127Z,101778
2017-04-08T12:12:32.283Z,101779
2017-04-08T12:13:32.379Z,101771
2017-04-08T12:14:31.808Z,101778
2017-04-08T12:15:31.894Z,101773
2017-04-08T12:16:32.104Z,101772
2017-04-08T12:17:32.597Z,101762
2017-04-08T12:18:34.395Z,101776
2017-04-08T12:19:34.517Z,101768
2017-04-08T12:20:35.140Z,101773
2017-04-08T12:21:35.292Z,101767
2017-04-08T12:22:35.707Z,101773
2017-04-08T12:23:35.880Z,101765
2017-04-08T12:24:35.912Z,101771
2017-04-08T12:25:36.059Z,101770
2017-04-08T12:26:36.159Z,101771
2017-04-08T12:27:36.560Z,101771
2017-04-08T12:28:36.645Z,101767
2017-04-08T12:29:37.951Z,101768
2017-04-08T12:30:38.024Z,101774
2017-04-08T12:31:38.226Z,101777
2017-04-08T12:32:38.675Z,101776